createdAt,value
2023-04-02T00:01:47.192Z,7.10
2023-04-02T00:04:23.116Z,7.00
2023-04-02T00:06:57.590Z,7.00
2023-04-02T00:09:38.105Z,7.00
2023-04-02T00:12:20.306Z,7.00
2023-04-02T00:14:54.964Z,7.00
2023-04-02T00:17:25.718Z,6.90
2023-04-02T00:19:58.067Z,6.90
2023-04-02T00:22:29.926Z,6.80
2023-04-02T00:24:58.346Z,6.90
2023-04-02T00:27:28.114Z,6.80
2023-04-02T00:29:57.995Z,6.80
2023-04-02T00:32:28.561Z,6.80
2023-04-02T00:34:57.504Z,6.90
2023-04-02T00:37:28.265Z,6.80
2023-04-02T00:40:01.602Z,6.70
2023-04-02T00:42:32.122Z,6.80
2023-04-02T00:45:02.389Z,6.70
2023-04-02T00:47:35.648Z,6.70
2023-04-02T00:50:08.629Z,6.70
2023-04-02T00:52:37.299Z,6.70
2023-04-02T00:55:10.422Z,6.60
2023-04-02T00:57:43.243Z,6.70
2023-04-02T01:00:22.080Z,6.70
2023-04-02T01:03:34.701Z,6.70
2023-04-02T01:06:10.509Z,6.60
2023-04-02T01:08:55.297Z,6.60
2023-04-02T01:11:43.218Z,6.60
2023-04-02T01:14:22.889Z,6.60
2023-04-02T01:16:56.276Z,6.60
2023-04-02T01:19:52.611Z,6.50
2023-04-02T01:22:30.915Z,6.50
2023-04-02T01:24:59.531Z,6.50
2023-04-02T01:27:30.914Z,6.60
2023-04-02T01:30:03.391Z,6.50
2023-04-02T01:32:32.084Z,6.50
2023-04-02T01:35:01.309Z,6.50
2023-04-02T01:37:39.079Z,6.50
2023-04-02T01:40:17.220Z,6.50
2023-04-02T01:42:54.082Z,6.50
2023-04-02T01:45:24.953Z,6.40
2023-04-02T01:47:53.722Z,6.30
2023-04-02T01:50:32.128Z,6.40
2023-04-02T01:53:03.284Z,6.40
2023-04-02T01:55:35.927Z,6.40
2023-04-02T01:58:05.678Z,6.40
2023-04-02T02:00:37.344Z,6.50
2023-04-02T02:03:08.591Z,6.40
2023-04-02T02:05:37.261Z,6.30
2023-04-02T02:08:06.693Z,6.40
2023-04-02T02:10:37.808Z,6.40
2023-04-02T02:13:07.224Z,6.30
2023-04-02T02:15:37.523Z,6.20
2023-04-02T02:18:07.555Z,6.30
2023-04-02T02:20:36.452Z,6.20
2023-04-02T02:23:05.483Z,6.30
2023-04-02T02:25:36.433Z,6.20
2023-04-02T02:28:09.179Z,6.20
2023-04-02T02:30:42.928Z,6.30
2023-04-02T02:33:18.485Z,6.20
2023-04-02T02:35:53.622Z,6.30
2023-04-02T02:38:47.067Z,6.30
2023-04-02T02:41:27.664Z,6.30
2023-04-02T02:44:02.920Z,6.30
2023-04-02T02:46:34.889Z,6.30
2023-04-02T02:49:07.195Z,6.30
2023-04-02T02:51:44.849Z,6.20
2023-04-02T02:54:20.033Z,6.30
2023-04-02T02:56:54.085Z,6.20
2023-04-02T02:59:23.508Z,6.20
2023-04-02T03:01:53.952Z,6.10
2023-04-02T03:04:23.838Z,6.10
2023-04-02T03:06:57.740Z,6.20
2023-04-02T03:09:37.770Z,6.10
2023-04-02T03:12:13.028Z,6.10
2023-04-02T03:14:47.466Z,6.10
2023-04-02T03:17:22.123Z,6.10
2023-04-02T03:19:57.728Z,6.20
2023-04-02T03:22:35.412Z,6.10
2023-04-02T03:25:06.995Z,6.10
2023-04-02T03:27:39.367Z,6.10
2023-04-02T03:30:27.510Z,6.00
2023-04-02T03:33:04.406Z,6.00
2023-04-02T03:35:37.412Z,5.90
2023-04-02T03:38:08.831Z,5.90
2023-04-02T03:40:41.719Z,5.90
2023-04-02T03:43:21.340Z,5.90
2023-04-02T03:45:54.137Z,5.80
2023-04-02T03:48:28.560Z,5.80
2023-04-02T03:51:01.276Z,5.80
2023-04-02T03:53:32.239Z,5.80
2023-04-02T03:56:02.502Z,5.80
2023-04-02T03:58:39.142Z,5.70
2023-04-02T04:01:13.351Z,5.70
2023-04-02T04:03:46.621Z,5.70
2023-04-02T04:06:21.974Z,5.70
2023-04-02T04:08:54.715Z,5.80
2023-04-02T04:11:28.408Z,5.70
2023-04-02T04:14:01.860Z,5.80
2023-04-02T04:16:34.402Z,5.80
2023-04-02T04:19:08.267Z,5.70
2023-04-02T04:21:38.204Z,5.80
2023-04-02T04:24:21.700Z,5.80
2023-04-02T04:26:56.036Z,5.80
2023-04-02T04:29:34.499Z,5.70
2023-04-02T04:32:18.136Z,5.70
2023-04-02T04:34:53.607Z,5.70
2023-04-02T04:37:35.188Z,5.70
2023-04-02T04:40:13.001Z,5.70
2023-04-02T04:42:44.399Z,5.70
2023-04-02T04:45:29.543Z,5.60
2023-04-02T04:48:02.273Z,5.60
2023-04-02T04:50:37.921Z,5.60
2023-04-02T04:53:07.552Z,5.50
2023-04-02T04:55:40.398Z,5.50
2023-04-02T04:58:19.795Z,5.40
2023-04-02T05:00:56.267Z,5.40
2023-04-02T05:03:32.006Z,5.50
2023-04-02T05:06:09.783Z,5.40
2023-04-02T05:08:45.339Z,5.50
2023-04-02T05:11:21.632Z,5.50
2023-04-02T05:13:54.540Z,5.50
2023-04-02T05:16:27.382Z,5.40
2023-04-02T05:19:05.000Z,5.40
2023-04-02T05:21:42.322Z,5.40
2023-04-02T05:24:40.379Z,5.30
2023-04-02T05:27:19.908Z,5.30
2023-04-02T05:29:52.843Z,5.30
2023-04-02T05:32:25.868Z,5.30
2023-04-02T05:34:57.176Z,5.20
2023-04-02T05:37:31.217Z,5.30
2023-04-02T05:40:13.426Z,5.30
2023-04-02T05:42:46.178Z,5.30
2023-04-02T05:45:24.106Z,5.30
2023-04-02T05:47:59.910Z,5.10
2023-04-02T05:50:37.418Z,5.10
2023-04-02T05:53:15.625Z,5.10
2023-04-02T05:55:51.417Z,5.10
2023-04-02T06:01:12.142Z,5.00
2023-04-02T06:03:47.289Z,5.10
2023-04-02T06:06:24.249Z,5.20
2023-04-02T06:08:59.313Z,5.20
2023-04-02T06:11:32.316Z,5.20
2023-04-02T06:14:04.544Z,5.20
2023-04-02T06:16:34.364Z,5.20
2023-04-02T06:19:09.501Z,5.20
2023-04-02T06:21:45.345Z,5.20
2023-04-02T06:24:20.294Z,5.10
2023-04-02T06:26:53.969Z,5.20
2023-04-02T06:29:28.979Z,5.20
2023-04-02T06:32:01.379Z,5.10
2023-04-02T06:34:31.777Z,5.00
2023-04-02T06:37:17.318Z,5.10
2023-04-02T06:39:48.718Z,5.10
2023-04-02T06:42:22.316Z,5.20
2023-04-02T06:45:19.924Z,5.20
2023-04-02T06:47:53.454Z,5.00
2023-04-02T06:50:42.389Z,4.90
2023-04-02T06:53:21.594Z,4.80
2023-04-02T06:55:54.506Z,4.90
2023-04-02T06:58:27.145Z,4.80
2023-04-02T07:00:56.192Z,4.80
2023-04-02T07:03:33.872Z,4.80
2023-04-02T07:06:15.777Z,4.80
2023-04-02T07:08:44.353Z,4.70
2023-04-02T07:11:18.723Z,4.70
2023-04-02T07:13:50.463Z,4.70
2023-04-02T07:16:21.479Z,4.70
2023-04-02T07:18:50.256Z,4.60
2023-04-02T07:21:19.273Z,4.60
2023-04-02T07:23:47.242Z,4.60
2023-04-02T07:26:18.487Z,4.60
2023-04-02T07:28:46.500Z,4.60
2023-04-02T07:31:19.280Z,4.50
2023-04-02T07:33:47.848Z,4.50
2023-04-02T07:36:16.886Z,4.60
2023-04-02T07:38:45.392Z,4.60
2023-04-02T07:41:14.082Z,4.60
2023-04-02T07:43:43.997Z,4.50
2023-04-02T07:46:14.094Z,4.50
2023-04-02T07:48:42.220Z,4.50
2023-04-02T07:51:17.147Z,4.50
2023-04-02T07:53:45.325Z,4.50
2023-04-02T07:56:16.909Z,4.50
2023-04-02T07:58:46.687Z,4.40
2023-04-02T08:01:18.511Z,4.50
2023-04-02T08:03:47.130Z,4.50
2023-04-02T08:06:15.326Z,4.60
2023-04-02T08:08:43.812Z,4.60
2023-04-02T08:11:12.840Z,4.70
2023-04-02T08:13:40.840Z,4.70
2023-04-02T08:16:10.509Z,4.60
2023-04-02T08:18:38.800Z,4.60
2023-04-02T08:21:08.790Z,4.70
2023-04-02T08:23:37.512Z,4.70
2023-04-02T08:26:06.158Z,4.80
2023-04-02T08:28:34.160Z,4.70
2023-04-02T08:31:02.525Z,4.80
2023-04-02T08:33:31.834Z,4.80
2023-04-02T08:35:59.874Z,4.70
2023-04-02T08:38:27.873Z,4.70
2023-04-02T08:41:00.798Z,4.60
2023-04-02T08:44:01.635Z,4.60
2023-04-02T08:46:34.494Z,4.70
2023-04-02T08:49:12.382Z,4.70
2023-04-02T08:51:40.958Z,4.70
2023-04-02T08:54:17.448Z,4.80
2023-04-02T08:56:50.601Z,4.70
2023-04-02T08:59:25.626Z,4.70
2023-04-02T09:02:01.345Z,4.80
2023-04-02T09:04:32.455Z,4.80
2023-04-02T09:07:01.700Z,4.80
2023-04-02T09:09:29.893Z,4.90
2023-04-02T09:12:01.264Z,4.90
2023-04-02T09:14:39.646Z,4.90
2023-04-02T09:17:17.595Z,4.80
2023-04-02T09:19:55.271Z,4.70
2023-04-02T09:22:25.284Z,4.70
2023-04-02T09:24:54.110Z,4.70
2023-04-02T09:27:23.981Z,4.80
2023-04-02T09:29:56.055Z,4.80
2023-04-02T09:32:45.721Z,4.80
2023-04-02T09:35:26.015Z,4.80
2023-04-02T09:38:22.090Z,4.80
2023-04-02T09:40:58.392Z,5.00
2023-04-02T09:43:28.148Z,5.10
2023-04-02T09:46:01.786Z,5.10
2023-04-02T09:48:33.202Z,5.10
2023-04-02T09:51:17.146Z,5.00
2023-04-02T09:53:47.225Z,5.00
2023-04-02T09:56:18.227Z,5.10
2023-04-02T09:58:47.735Z,5.10
2023-04-02T10:01:30.270Z,5.10
2023-04-02T10:03:59.656Z,5.00
2023-04-02T10:06:30.648Z,5.10
2023-04-02T10:08:58.858Z,5.00
2023-04-02T10:11:36.473Z,5.00
2023-04-02T10:14:16.844Z,4.80
2023-04-02T10:16:48.713Z,4.80
2023-04-02T10:19:23.862Z,4.70
2023-04-02T10:21:54.928Z,4.70
2023-04-02T10:24:23.105Z,4.70
2023-04-02T10:27:01.852Z,4.60
2023-04-02T10:29:45.123Z,4.60
2023-04-02T10:32:17.735Z,4.70
2023-04-02T10:34:52.066Z,4.80
2023-04-02T10:37:48.391Z,4.80
2023-04-02T10:40:24.790Z,4.70
2023-04-02T10:43:03.368Z,4.70
2023-04-02T10:45:43.293Z,4.70
2023-04-02T10:48:18.855Z,4.70
2023-04-02T10:50:51.779Z,4.70
2023-04-02T10:53:24.602Z,4.70
2023-04-02T10:55:54.976Z,4.80
2023-04-02T10:58:26.563Z,4.70
2023-04-02T11:00:59.416Z,4.70
2023-04-02T11:03:36.985Z,4.70
2023-04-02T11:06:12.454Z,4.70
2023-04-02T11:08:47.435Z,4.70
2023-04-02T11:11:17.208Z,4.70
2023-04-02T11:13:53.305Z,4.70
2023-04-02T11:16:21.745Z,4.80
2023-04-02T11:19:23.190Z,4.70
2023-04-02T11:21:59.434Z,4.60
2023-04-02T11:24:37.926Z,4.70
2023-04-02T11:27:08.658Z,4.70
2023-04-02T11:29:38.186Z,4.90
2023-04-02T11:32:32.059Z,5.10
2023-04-02T11:35:26.957Z,5.30
2023-04-02T11:37:56.518Z,5.20
2023-04-02T11:40:59.127Z,5.20
2023-04-02T11:43:51.909Z,5.10
2023-04-02T11:46:48.199Z,5.20
2023-04-02T11:49:57.884Z,5.10
2023-04-02T11:52:29.702Z,5.10
2023-04-02T11:55:05.075Z,5.00
2023-04-02T11:57:52.549Z,5.10
2023-04-02T12:00:34.743Z,5.10
2023-04-02T12:03:28.376Z,5.10
2023-04-02T12:06:04.171Z,5.10
2023-04-02T12:08:57.075Z,5.00
2023-04-02T12:11:33.768Z,5.00
2023-04-02T12:14:08.173Z,4.90
2023-04-02T12:16:36.673Z,4.90
2023-04-02T12:19:10.423Z,4.90
2023-04-02T12:21:39.499Z,4.80
2023-04-02T12:24:16.040Z,4.80
2023-04-02T12:26:46.359Z,4.80
2023-04-02T12:29:25.108Z,4.80
2023-04-02T12:31:54.133Z,4.70
2023-04-02T12:34:23.761Z,4.70
2023-04-02T12:36:57.059Z,4.80
2023-04-02T12:39:27.957Z,4.90
2023-04-02T12:41:57.347Z,4.90
2023-04-02T12:44:29.882Z,5.00
2023-04-02T12:46:59.914Z,5.00
2023-04-02T12:49:36.994Z,4.90
2023-04-02T12:52:07.182Z,4.90
2023-04-02T12:54:39.101Z,4.90
2023-04-02T12:57:40.854Z,4.80
2023-04-02T13:00:34.054Z,4.80
2023-04-02T13:03:18.556Z,4.80
2023-04-02T13:05:50.916Z,4.90
2023-04-02T13:08:21.480Z,4.90
2023-04-02T13:10:54.686Z,5.00
2023-04-02T13:13:28.273Z,5.00
2023-04-02T13:16:07.007Z,5.00
2023-04-02T13:18:37.482Z,5.00
2023-04-02T13:21:06.786Z,5.00
2023-04-02T13:23:38.462Z,4.90
2023-04-02T13:26:18.013Z,5.00
2023-04-02T13:28:57.360Z,4.90
2023-04-02T13:31:27.262Z,4.90
2023-04-02T13:33:55.339Z,4.90
2023-04-02T13:36:23.394Z,4.90
2023-04-02T13:38:51.793Z,4.90
2023-04-02T13:41:23.799Z,4.80
2023-04-02T13:43:52.986Z,4.70
2023-04-02T13:46:23.387Z,4.60
2023-04-02T13:48:54.449Z,4.60
2023-04-02T13:51:25.453Z,4.60
2023-04-02T13:53:56.934Z,4.50
2023-04-02T13:56:25.423Z,4.50
2023-04-02T13:58:53.876Z,4.50
2023-04-02T14:01:25.327Z,4.40
2023-04-02T14:03:56.992Z,4.50
2023-04-02T14:06:39.064Z,4.40
2023-04-02T14:09:14.973Z,4.40
2023-04-02T14:11:52.614Z,4.40
2023-04-02T14:14:33.192Z,4.30
2023-04-02T14:17:16.218Z,4.30
2023-04-02T14:20:00.057Z,4.20
2023-04-02T14:22:42.683Z,4.10
2023-04-02T14:25:19.131Z,4.20
2023-04-02T14:27:54.342Z,4.20
2023-04-02T14:30:28.284Z,4.10
2023-04-02T14:33:01.448Z,4.10
2023-04-02T14:35:37.141Z,4.10
2023-04-02T14:38:18.264Z,4.00
2023-04-02T14:40:51.537Z,4.00
2023-04-02T14:43:24.528Z,4.00
2023-04-02T14:46:00.897Z,3.90
2023-04-02T14:48:46.215Z,4.00
2023-04-02T14:51:22.153Z,3.90
2023-04-02T14:54:00.316Z,3.90
2023-04-02T14:56:29.948Z,3.80
2023-04-02T14:59:10.295Z,3.80
2023-04-02T15:01:41.986Z,3.70
2023-04-02T15:04:14.954Z,3.70
2023-04-02T15:06:48.373Z,3.60
2023-04-02T15:09:21.186Z,3.60
2023-04-02T15:11:54.025Z,3.60
2023-04-02T15:14:28.457Z,3.50
2023-04-02T15:16:56.398Z,3.50
2023-04-02T15:19:24.330Z,3.40
2023-04-02T15:22:12.743Z,3.30
2023-04-02T15:24:51.121Z,3.30
2023-04-02T15:27:34.701Z,3.40
2023-04-02T15:30:13.087Z,3.40
2023-04-02T15:32:43.751Z,3.40
2023-04-02T15:35:22.510Z,3.40
2023-04-02T15:38:00.930Z,3.40
2023-04-02T15:40:50.041Z,3.30
2023-04-02T15:43:23.425Z,3.40
2023-04-02T15:46:00.489Z,3.40
2023-04-02T15:49:02.876Z,3.40
2023-04-02T15:51:50.092Z,3.40
2023-04-02T15:54:34.288Z,3.40
2023-04-02T15:57:15.343Z,3.40
2023-04-02T16:00:11.277Z,3.40
2023-04-02T16:02:58.373Z,3.30
2023-04-02T16:05:36.048Z,3.30
2023-04-02T16:08:27.487Z,3.30
2023-04-02T16:10:57.102Z,3.20
2023-04-02T16:13:30.578Z,3.20
2023-04-02T16:16:05.295Z,3.30
2023-04-02T16:18:44.602Z,3.20
2023-04-02T16:21:18.582Z,3.30
2023-04-02T16:23:46.662Z,3.30
2023-04-02T16:26:29.808Z,3.30
2023-04-02T16:29:12.364Z,3.30
2023-04-02T16:31:47.485Z,3.30
2023-04-02T16:34:28.998Z,3.40
2023-04-02T16:37:06.722Z,3.40
2023-04-02T16:39:42.635Z,3.30
2023-04-02T16:42:21.703Z,3.40
2023-04-02T16:45:01.363Z,3.40
2023-04-02T16:47:47.618Z,3.40
2023-04-02T16:50:27.892Z,3.40
2023-04-02T16:53:01.722Z,3.40
2023-04-02T16:55:43.532Z,3.50
2023-04-02T16:58:28.136Z,3.50
2023-04-02T17:01:00.543Z,3.40
2023-04-02T17:04:01.467Z,3.50
2023-04-02T17:06:41.692Z,3.60
2023-04-02T17:09:18.564Z,3.60
2023-04-02T17:11:50.792Z,3.60
2023-04-02T17:14:28.452Z,3.60
2023-04-02T17:17:01.808Z,3.60
2023-04-02T17:19:31.777Z,3.70
2023-04-02T17:22:02.673Z,3.70
2023-04-02T17:24:34.816Z,3.70
2023-04-02T17:27:08.824Z,3.70
2023-04-02T17:29:41.730Z,3.70
2023-04-02T17:32:19.035Z,3.70
2023-04-02T17:34:47.067Z,3.70
2023-04-02T17:37:23.978Z,3.70
2023-04-02T17:40:01.270Z,3.80
2023-04-02T17:42:41.465Z,3.80
2023-04-02T17:45:16.673Z,3.80
2023-04-02T17:47:52.378Z,3.90
2023-04-02T17:50:44.096Z,3.90
2023-04-02T17:53:23.296Z,3.90
2023-04-02T17:55:59.931Z,3.90
2023-04-02T17:58:49.288Z,3.90
2023-04-02T18:01:25.992Z,3.90
2023-04-02T18:04:04.889Z,3.80
2023-04-02T18:06:40.298Z,3.80
2023-04-02T18:09:22.046Z,3.80
2023-04-02T18:12:00.485Z,3.80
2023-04-02T18:14:43.853Z,3.80
2023-04-02T18:17:22.180Z,3.90
2023-04-02T18:19:55.262Z,3.90
2023-04-02T18:22:32.420Z,3.90
2023-04-02T18:25:24.542Z,3.90
2023-04-02T18:28:09.637Z,3.90
2023-04-02T18:30:43.982Z,3.90
2023-04-02T18:33:30.834Z,4.00
2023-04-02T18:36:05.161Z,4.00
2023-04-02T18:38:45.333Z,3.90
2023-04-02T18:41:26.991Z,3.90
2023-04-02T18:44:08.509Z,3.90
2023-04-02T18:46:44.646Z,3.90
2023-04-02T18:49:24.757Z,4.00
2023-04-02T18:51:58.211Z,3.90
2023-04-02T18:54:32.106Z,3.90
2023-04-02T18:57:02.343Z,4.00
2023-04-02T18:59:35.980Z,3.90
2023-04-02T19:02:25.051Z,3.90
2023-04-02T19:05:01.980Z,3.90
2023-04-02T19:07:32.447Z,3.90
2023-04-02T19:10:08.412Z,3.90
2023-04-02T19:12:37.063Z,3.90
2023-04-02T19:15:17.461Z,3.80
2023-04-02T19:17:49.189Z,3.80
2023-04-02T19:20:30.690Z,3.80
2023-04-02T19:23:11.522Z,3.80
2023-04-02T19:26:01.187Z,3.80
2023-04-02T19:28:34.780Z,3.80
2023-04-02T19:31:33.574Z,3.70
2023-04-02T19:34:12.903Z,3.70
2023-04-02T19:36:47.652Z,3.70
2023-04-02T19:39:54.474Z,3.80
2023-04-02T19:42:44.367Z,3.80
2023-04-02T19:45:29.148Z,3.80
2023-04-02T19:47:59.485Z,3.80
2023-04-02T19:50:27.582Z,3.70
2023-04-02T19:52:57.619Z,3.70
2023-04-02T19:55:25.687Z,3.80
2023-04-02T19:57:57.794Z,3.70
2023-04-02T20:00:32.852Z,3.70
2023-04-02T20:03:00.900Z,3.70
2023-04-02T20:05:28.881Z,3.70
2023-04-02T20:07:58.205Z,3.70
2023-04-02T20:10:26.111Z,3.60
2023-04-02T20:12:54.068Z,3.70
2023-04-02T20:15:21.967Z,3.70
2023-04-02T20:17:49.948Z,3.80
2023-04-02T20:20:18.186Z,3.70
2023-04-02T20:22:46.128Z,3.70
2023-04-02T20:25:16.086Z,3.60
2023-04-02T20:27:44.045Z,3.70
2023-04-02T20:30:12.804Z,3.70
2023-04-02T20:32:41.304Z,3.80
2023-04-02T20:35:10.139Z,3.70
2023-04-02T20:37:39.548Z,3.60
2023-04-02T20:40:09.957Z,3.60
2023-04-02T20:42:39.290Z,3.60
2023-04-02T20:45:09.127Z,3.70
2023-04-02T20:47:37.115Z,3.70
2023-04-02T20:50:05.474Z,3.70
2023-04-02T20:52:34.325Z,3.70
2023-04-02T20:55:02.998Z,3.70
2023-04-02T20:57:31.230Z,3.70
2023-04-02T21:00:02.625Z,3.60
2023-04-02T21:02:30.645Z,3.60
2023-04-02T21:04:58.660Z,3.60
2023-04-02T21:07:26.678Z,3.50
2023-04-02T21:09:54.624Z,3.60
2023-04-02T21:12:24.406Z,3.70
2023-04-02T21:14:56.713Z,3.60
2023-04-02T21:17:26.382Z,3.60
2023-04-02T21:19:54.316Z,3.70
2023-04-02T21:22:22.264Z,3.60
2023-04-02T21:24:50.252Z,3.60
2023-04-02T21:27:18.528Z,3.60
2023-04-02T21:29:46.464Z,3.60
2023-04-02T21:32:21.189Z,3.50
2023-04-02T21:34:51.146Z,3.60
2023-04-02T21:37:19.105Z,3.50
2023-04-02T21:39:47.288Z,3.50
2023-04-02T21:42:15.255Z,3.50
2023-04-02T21:44:43.254Z,3.40
2023-04-02T21:47:11.295Z,3.50
2023-04-02T21:49:39.375Z,3.40
2023-04-02T21:52:08.680Z,3.40
2023-04-02T21:54:36.644Z,3.40
2023-04-02T21:57:04.799Z,3.40
2023-04-02T21:59:32.833Z,3.40
2023-04-02T22:02:00.839Z,3.40
2023-04-02T22:04:30.670Z,3.40
2023-04-02T22:06:58.781Z,3.40
2023-04-02T22:09:29.494Z,3.40
2023-04-02T22:11:59.835Z,3.40
2023-04-02T22:14:28.581Z,3.40
2023-04-02T22:16:58.704Z,3.40
2023-04-02T22:19:27.270Z,3.30
2023-04-02T22:21:56.403Z,3.30
2023-04-02T22:24:25.078Z,3.30
2023-04-02T22:26:54.708Z,3.20
2023-04-02T22:29:22.840Z,3.30
2023-04-02T22:31:51.041Z,3.30
2023-04-02T22:34:18.978Z,3.20
2023-04-02T22:36:47.367Z,3.20
2023-04-02T22:39:16.178Z,3.20
2023-04-02T22:41:44.179Z,3.10
2023-04-02T22:44:16.476Z,3.10
2023-04-02T22:46:44.728Z,3.10
2023-04-02T22:49:15.852Z,3.00
2023-04-02T22:51:45.686Z,3.00
2023-04-02T22:54:13.598Z,2.90
2023-04-02T22:56:41.720Z,2.90
2023-04-02T22:59:09.667Z,2.80
2023-04-02T23:01:38.954Z,2.80
2023-04-02T23:04:07.118Z,2.80
2023-04-02T23:06:35.388Z,2.80
2023-04-02T23:09:04.100Z,2.70
2023-04-02T23:11:32.071Z,2.70
2023-04-02T23:13:59.986Z,2.70
2023-04-02T23:16:29.782Z,2.70
2023-04-02T23:18:59.520Z,2.60
2023-04-02T23:21:28.159Z,2.60
2023-04-02T23:23:56.282Z,2.60
2023-04-02T23:26:26.116Z,2.50
2023-04-02T23:28:54.087Z,2.50
2023-04-02T23:31:23.838Z,2.40
2023-04-02T23:33:52.670Z,2.40
2023-04-02T23:36:24.648Z,2.40
2023-04-02T23:38:55.247Z,2.40
2023-04-02T23:41:24.398Z,2.40
2023-04-02T23:43:52.574Z,2.30
2023-04-02T23:46:21.077Z,2.30
2023-04-02T23:48:51.715Z,2.30
2023-04-02T23:51:20.162Z,2.20
2023-04-02T23:53:50.296Z,2.20
2023-04-02T23:56:18.409Z,2.10
2023-04-02T23:58:46.552Z,2.10
